Santurtzi, Spain
Current Conditions -  °F | °C
As of 7:00 PM on Thursday 23 Oct 2014 (Local Time) from LEBB Reporting Station
Clear Clear  
Wind Chill: 66°   Ceiling: Unl
Heat Index: 66°   Visibility: 6mi
Dew Point: 48°   Wind: 0mph
Humidity: 52%   Direction: NA
Pressure: 30.18"   Gusts: NA
Location:  43.33°N, 3.03°W
Report Text: LEBB 231700Z 00000KT CAVOK 19/09 Q1022 NOSIG
Loading
Personal Weather Stations






























Interactive Weather Map
Tropical Storm Tracking
New forecast layout! Learn more

10-Day Weather Forecast

Advertisements
Track Severe Weather on mobile